sensor_id;sensor_type;location;lat;lon;timestamp;pressure;altitude;pressure_sealevel;temperature;humidity
11648;BME280;5880;52.342;9.662;2023-05-29T00:02:23;101532.22;;;20.18;39.22
11648;BME280;5880;52.342;9.662;2023-05-29T00:04:48;101531.66;;;20.16;39.36
11648;BME280;5880;52.342;9.662;2023-05-29T00:07:16;101539.16;;;20.16;39.38
11648;BME280;5880;52.342;9.662;2023-05-29T00:09:42;101541.38;;;20.14;39.49
11648;BME280;5880;52.342;9.662;2023-05-29T00:12:07;101543.84;;;20.10;39.42
11648;BME280;5880;52.342;9.662;2023-05-29T00:14:33;101549.66;;;20.09;39.43
11648;BME280;5880;52.342;9.662;2023-05-29T00:16:59;101541.88;;;20.00;39.47
11648;BME280;5880;52.342;9.662;2023-05-29T00:19:24;101548.81;;;19.98;39.51
11648;BME280;5880;52.342;9.662;2023-05-29T00:21:50;101560.16;;;19.96;39.71
11648;BME280;5880;52.342;9.662;2023-05-29T00:24:16;101560.47;;;19.95;39.46
11648;BME280;5880;52.342;9.662;2023-05-29T00:26:43;101549.06;;;19.91;39.78
11648;BME280;5880;52.342;9.662;2023-05-29T00:29:09;101557.94;;;19.88;39.51
11648;BME280;5880;52.342;9.662;2023-05-29T00:31:35;101557.63;;;19.85;39.69
11648;BME280;5880;52.342;9.662;2023-05-29T00:34:02;101559.56;;;19.79;39.60
11648;BME280;5880;52.342;9.662;2023-05-29T00:36:28;101558.69;;;19.73;39.60
11648;BME280;5880;52.342;9.662;2023-05-29T00:38:55;101567.88;;;19.74;39.78
11648;BME280;5880;52.342;9.662;2023-05-29T00:41:21;101565.56;;;19.66;39.52
11648;BME280;5880;52.342;9.662;2023-05-29T00:43:46;101565.56;;;19.60;39.52
11648;BME280;5880;52.342;9.662;2023-05-29T00:46:14;101586.38;;;19.63;39.57
11648;BME280;5880;52.342;9.662;2023-05-29T00:48:44;101581.06;;;19.56;39.80
11648;BME280;5880;52.342;9.662;2023-05-29T00:51:12;101589.63;;;19.55;39.74
11648;BME280;5880;52.342;9.662;2023-05-29T00:53:42;101571.81;;;19.40;39.68
11648;BME280;5880;52.342;9.662;2023-05-29T00:56:09;101589.91;;;19.48;39.54
11648;BME280;5880;52.342;9.662;2023-05-29T00:58:36;101582.09;;;19.40;39.69
11648;BME280;5880;52.342;9.662;2023-05-29T01:01:03;101576.78;;;19.38;39.63
11648;BME280;5880;52.342;9.662;2023-05-29T01:03:29;101590.94;;;19.37;39.58
11648;BME280;5880;52.342;9.662;2023-05-29T01:05:54;101573.41;;;19.26;39.61
11648;BME280;5880;52.342;9.662;2023-05-29T01:08:20;101578.69;;;19.28;39.74
11648;BME280;5880;52.342;9.662;2023-05-29T01:10:46;101587.25;;;19.26;39.72
11648;BME280;5880;52.342;9.662;2023-05-29T01:13:23;101590.31;;;19.25;39.71
11648;BME280;5880;52.342;9.662;2023-05-29T01:16:08;101593.91;;;19.20;39.66
11648;BME280;5880;52.342;9.662;2023-05-29T01:19:00;101594.13;;;19.13;39.78
11648;BME280;5880;52.342;9.662;2023-05-29T01:22:12;101603.47;;;19.07;39.63
11648;BME280;5880;52.342;9.662;2023-05-29T01:24:56;101598.19;;;19.06;39.78
11648;BME280;5880;52.342;9.662;2023-05-29T01:27:25;101587.66;;;19.03;39.84
11648;BME280;5880;52.342;9.662;2023-05-29T01:29:55;101592.34;;;18.97;39.73
11648;BME280;5880;52.342;9.662;2023-05-29T01:32:24;101597.88;;;18.97;39.79
11648;BME280;5880;52.342;9.662;2023-05-29T01:34:51;101584.25;;;18.90;39.68
11648;BME280;5880;52.342;9.662;2023-05-29T01:37:16;101603.38;;;18.92;39.61
11648;BME280;5880;52.342;9.662;2023-05-29T01:39:42;101601.41;;;18.87;39.83
11648;BME280;5880;52.342;9.662;2023-05-29T01:42:09;101607.19;;;18.86;39.79
11648;BME280;5880;52.342;9.662;2023-05-29T01:44:37;101608.53;;;18.78;39.75
11648;BME280;5880;52.342;9.662;2023-05-29T01:47:04;101613.78;;;18.80;39.81
11648;BME280;5880;52.342;9.662;2023-05-29T01:49:31;101613.72;;;18.74;39.99
11648;BME280;5880;52.342;9.662;2023-05-29T01:51:58;101619.78;;;18.71;39.88
11648;BME280;5880;52.342;9.662;2023-05-29T01:54:24;101615.03;;;18.67;39.91
11648;BME280;5880;52.342;9.662;2023-05-29T01:56:51;101619.47;;;18.68;39.98
11648;BME280;5880;52.342;9.662;2023-05-29T01:59:17;101617.47;;;18.63;39.95
11648;BME280;5880;52.342;9.662;2023-05-29T02:01:43;101618.59;;;18.62;39.80
11648;BME280;5880;52.342;9.662;2023-05-29T02:04:08;101613.50;;;18.54;39.94
11648;BME280;5880;52.342;9.662;2023-05-29T02:06:34;101619.91;;;18.54;39.91
11648;BME280;5880;52.342;9.662;2023-05-29T02:09:00;101613.75;;;18.47;39.97
11648;BME280;5880;52.342;9.662;2023-05-29T02:11:26;101615.06;;;18.45;39.97
11648;BME280;5880;52.342;9.662;2023-05-29T02:13:52;101622.88;;;18.48;39.97
11648;BME280;5880;52.342;9.662;2023-05-29T02:16:18;101629.44;;;18.42;40.03
11648;BME280;5880;52.342;9.662;2023-05-29T02:18:46;101627.22;;;18.39;39.98
11648;BME280;5880;52.342;9.662;2023-05-29T02:21:12;101619.09;;;18.32;39.95
11648;BME280;5880;52.342;9.662;2023-05-29T02:23:38;101627.41;;;18.32;40.35
11648;BME280;5880;52.342;9.662;2023-05-29T02:26:04;101621.81;;;18.27;40.23
11648;BME280;5880;52.342;9.662;2023-05-29T02:28:30;101631.78;;;18.28;40.21
11648;BME280;5880;52.342;9.662;2023-05-29T02:30:56;101625.38;;;18.22;40.30
11648;BME280;5880;52.342;9.662;2023-05-29T02:33:22;101622.78;;;18.16;40.19
11648;BME280;5880;52.342;9.662;2023-05-29T02:35:48;101629.75;;;18.18;40.24
11648;BME280;5880;52.342;9.662;2023-05-29T02:38:14;101629.69;;;18.13;40.15
11648;BME280;5880;52.342;9.662;2023-05-29T02:40:40;101635.22;;;18.13;40.16
11648;BME280;5880;52.342;9.662;2023-05-29T02:43:07;101633.81;;;18.10;40.37
11648;BME280;5880;52.342;9.662;2023-05-29T02:45:33;101635.16;;;18.08;40.30
11648;BME280;5880;52.342;9.662;2023-05-29T02:47:59;101644.81;;;18.05;40.40
11648;BME280;5880;52.342;9.662;2023-05-29T02:50:25;101634.53;;;18.01;40.48
11648;BME280;5880;52.342;9.662;2023-05-29T02:52:50;101632.59;;;18.01;40.46
11648;BME280;5880;52.342;9.662;2023-05-29T02:55:16;101633.13;;;17.98;40.54
11648;BME280;5880;52.342;9.662;2023-05-29T02:57:42;101632.78;;;17.95;40.38
11648;BME280;5880;52.342;9.662;2023-05-29T03:00:08;101636.38;;;17.95;40.45
11648;BME280;5880;52.342;9.662;2023-05-29T03:02:34;101623.00;;;17.87;40.57
11648;BME280;5880;52.342;9.662;2023-05-29T03:05:03;101635.50;;;17.89;40.53
11648;BME280;5880;52.342;9.662;2023-05-29T03:07:28;101631.31;;;17.87;40.68
11648;BME280;5880;52.342;9.662;2023-05-29T03:09:54;101639.59;;;17.87;40.61
11648;BME280;5880;52.342;9.662;2023-05-29T03:12:20;101628.47;;;17.82;40.54
11648;BME280;5880;52.342;9.662;2023-05-29T03:14:46;101626.19;;;17.79;40.62
11648;BME280;5880;52.342;9.662;2023-05-29T03:17:13;101630.28;;;17.76;40.69
11648;BME280;5880;52.342;9.662;2023-05-29T03:19:38;101643.03;;;17.77;40.69
11648;BME280;5880;52.342;9.662;2023-05-29T03:22:04;101638.00;;;17.74;40.79
11648;BME280;5880;52.342;9.662;2023-05-29T03:24:30;101645.72;;;17.72;40.83
11648;BME280;5880;52.342;9.662;2023-05-29T03:26:55;101636.59;;;17.71;40.77
11648;BME280;5880;52.342;9.662;2023-05-29T03:29:21;101641.53;;;17.69;40.84
11648;BME280;5880;52.342;9.662;2023-05-29T03:31:47;101651.53;;;17.70;40.65
11648;BME280;5880;52.342;9.662;2023-05-29T03:34:12;101650.34;;;17.66;40.87
11648;BME280;5880;52.342;9.662;2023-05-29T03:36:39;101642.22;;;17.60;40.98
11648;BME280;5880;52.342;9.662;2023-05-29T03:39:04;101648.34;;;17.62;41.19
11648;BME280;5880;52.342;9.662;2023-05-29T03:41:30;101654.97;;;17.61;41.11
11648;BME280;5880;52.342;9.662;2023-05-29T03:43:56;101662.75;;;17.64;41.02
11648;BME280;5880;52.342;9.662;2023-05-29T03:46:22;101659.66;;;17.60;41.14
11648;BME280;5880;52.342;9.662;2023-05-29T03:48:47;101657.75;;;17.61;41.38
11648;BME280;5880;52.342;9.662;2023-05-29T03:51:13;101655.81;;;17.61;41.27
11648;BME280;5880;52.342;9.662;2023-05-29T03:53:39;101657.47;;;17.62;41.40
11648;BME280;5880;52.342;9.662;2023-05-29T03:56:05;101648.09;;;17.63;41.59
11648;BME280;5880;52.342;9.662;2023-05-29T03:58:31;101655.06;;;17.66;41.68
11648;BME280;5880;52.342;9.662;2023-05-29T04:00:56;101665.59;;;17.69;41.54
11648;BME280;5880;52.342;9.662;2023-05-29T04:03:22;101667.00;;;17.71;41.53
11648;BME280;5880;52.342;9.662;2023-05-29T04:05:48;101667.94;;;17.77;41.63
11648;BME280;5880;52.342;9.662;2023-05-29T04:08:14;101663.81;;;17.80;41.68
11648;BME280;5880;52.342;9.662;2023-05-29T04:10:39;101654.59;;;17.74;41.77
11648;BME280;5880;52.342;9.662;2023-05-29T04:13:05;101668.59;;;17.84;41.83
11648;BME280;5880;52.342;9.662;2023-05-29T04:15:32;101671.97;;;17.86;41.76
11648;BME280;5880;52.342;9.662;2023-05-29T04:18:00;101674.22;;;17.89;41.85
11648;BME280;5880;52.342;9.662;2023-05-29T04:20:26;101676.44;;;17.92;41.91
11648;BME280;5880;52.342;9.662;2023-05-29T04:22:52;101670.66;;;17.94;41.92
11648;BME280;5880;52.342;9.662;2023-05-29T04:25:17;101677.03;;;17.95;41.94
11648;BME280;5880;52.342;9.662;2023-05-29T04:27:44;101684.56;;;17.99;42.06
11648;BME280;5880;52.342;9.662;2023-05-29T04:30:15;101684.31;;;18.01;42.03
11648;BME280;5880;52.342;9.662;2023-05-29T04:32:41;101685.72;;;18.03;41.95
11648;BME280;5880;52.342;9.662;2023-05-29T04:35:07;101682.69;;;18.05;41.94
11648;BME280;5880;52.342;9.662;2023-05-29T04:37:33;101691.56;;;18.07;42.09
11648;BME280;5880;52.342;9.662;2023-05-29T04:40:06;101686.38;;;18.10;42.14
11648;BME280;5880;52.342;9.662;2023-05-29T04:42:37;101680.78;;;18.05;41.92
11648;BME280;5880;52.342;9.662;2023-05-29T04:45:04;101686.88;;;18.07;42.11
11648;BME280;5880;52.342;9.662;2023-05-29T04:47:33;101675.03;;;18.12;42.06
11648;BME280;5880;52.342;9.662;2023-05-29T04:50:01;101696.38;;;18.17;42.22
11648;BME280;5880;52.342;9.662;2023-05-29T04:52:27;101676.78;;;18.18;42.25
11648;BME280;5880;52.342;9.662;2023-05-29T04:54:54;101681.78;;;18.21;42.37
11648;BME280;5880;52.342;9.662;2023-05-29T04:57:22;101677.94;;;18.22;42.41
11648;BME280;5880;52.342;9.662;2023-05-29T04:59:47;101681.88;;;18.26;42.34
11648;BME280;5880;52.342;9.662;2023-05-29T05:02:13;101693.59;;;18.33;42.56
11648;BME280;5880;52.342;9.662;2023-05-29T05:04:38;101694.47;;;18.39;42.37
11648;BME280;5880;52.342;9.662;2023-05-29T05:07:05;101698.97;;;18.45;42.39
11648;BME280;5880;52.342;9.662;2023-05-29T05:09:31;101683.50;;;18.49;42.55
11648;BME280;5880;52.342;9.662;2023-05-29T05:11:57;101686.91;;;18.56;42.61
11648;BME280;5880;52.342;9.662;2023-05-29T05:14:23;101693.94;;;18.64;42.58
11648;BME280;5880;52.342;9.662;2023-05-29T05:16:49;101687.84;;;18.67;42.67
11648;BME280;5880;52.342;9.662;2023-05-29T05:19:15;101688.22;;;18.76;42.66
11648;BME280;5880;52.342;9.662;2023-05-29T05:21:41;101687.28;;;18.87;42.82
11648;BME280;5880;52.342;9.662;2023-05-29T05:24:06;101682.03;;;18.91;42.68
11648;BME280;5880;52.342;9.662;2023-05-29T05:26:32;101674.88;;;18.95;42.62
11648;BME280;5880;52.342;9.662;2023-05-29T05:28:57;101694.91;;;19.07;42.71
11648;BME280;5880;52.342;9.662;2023-05-29T05:31:24;101698.03;;;19.16;42.70
11648;BME280;5880;52.342;9.662;2023-05-29T05:33:49;101700.06;;;19.26;42.98
11648;BME280;5880;52.342;9.662;2023-05-29T05:36:17;101699.34;;;19.40;43.29
11648;BME280;5880;52.342;9.662;2023-05-29T05:38:42;101697.53;;;19.56;42.95
11648;BME280;5880;52.342;9.662;2023-05-29T05:41:08;101703.50;;;19.75;43.52
11648;BME280;5880;52.342;9.662;2023-05-29T05:43:34;101703.63;;;19.96;43.49
11648;BME280;5880;52.342;9.662;2023-05-29T05:45:59;101708.16;;;20.17;43.08
11648;BME280;5880;52.342;9.662;2023-05-29T05:48:25;101712.66;;;20.34;43.04
11648;BME280;5880;52.342;9.662;2023-05-29T05:50:50;101708.25;;;20.43;42.48
11648;BME280;5880;52.342;9.662;2023-05-29T05:53:16;101711.91;;;20.54;42.42
11648;BME280;5880;52.342;9.662;2023-05-29T05:55:46;101708.09;;;20.65;42.80
11648;BME280;5880;52.342;9.662;2023-05-29T05:58:12;101700.59;;;20.76;42.71
11648;BME280;5880;52.342;9.662;2023-05-29T06:00:39;101717.59;;;20.95;42.43
11648;BME280;5880;52.342;9.662;2023-05-29T06:03:05;101704.81;;;21.09;42.64
11648;BME280;5880;52.342;9.662;2023-05-29T06:05:31;101700.66;;;21.22;42.34
11648;BME280;5880;52.342;9.662;2023-05-29T06:07:56;101716.53;;;21.47;42.06
11648;BME280;5880;52.342;9.662;2023-05-29T06:10:22;101722.03;;;21.73;41.78
11648;BME280;5880;52.342;9.662;2023-05-29T06:12:48;101715.88;;;21.96;41.63
11648;BME280;5880;52.342;9.662;2023-05-29T06:15:14;101730.81;;;22.31;41.71
11648;BME280;5880;52.342;9.662;2023-05-29T06:17:39;101728.41;;;22.64;41.62
11648;BME280;5880;52.342;9.662;2023-05-29T06:20:06;101723.72;;;23.04;41.36
11648;BME280;5880;52.342;9.662;2023-05-29T06:22:39;101730.66;;;23.46;41.07
11648;BME280;5880;52.342;9.662;2023-05-29T06:25:05;101730.09;;;23.78;40.53
11648;BME280;5880;52.342;9.662;2023-05-29T06:27:31;101742.59;;;24.10;40.20
11648;BME280;5880;52.342;9.662;2023-05-29T06:29:57;101726.53;;;24.44;40.42
11648;BME280;5880;52.342;9.662;2023-05-29T06:32:23;101734.91;;;24.88;40.26
11648;BME280;5880;52.342;9.662;2023-05-29T06:34:48;101726.84;;;25.38;40.15
11648;BME280;5880;52.342;9.662;2023-05-29T06:37:14;101727.00;;;25.93;39.63
11648;BME280;5880;52.342;9.662;2023-05-29T06:39:40;101726.97;;;26.48;39.18
11648;BME280;5880;52.342;9.662;2023-05-29T06:42:08;101722.56;;;27.06;38.86
11648;BME280;5880;52.342;9.662;2023-05-29T06:44:34;101728.34;;;27.46;38.18
11648;BME280;5880;52.342;9.662;2023-05-29T06:46:59;101733.06;;;27.91;37.77
11648;BME280;5880;52.342;9.662;2023-05-29T06:49:25;101737.38;;;28.37;37.33
11648;BME280;5880;52.342;9.662;2023-05-29T06:51:51;101732.84;;;28.76;36.88
11648;BME280;5880;52.342;9.662;2023-05-29T06:54:17;101748.75;;;29.24;36.48
11648;BME280;5880;52.342;9.662;2023-05-29T06:56:42;101756.00;;;29.69;35.48
11648;BME280;5880;52.342;9.662;2023-05-29T06:59:08;101755.88;;;30.03;34.94
11648;BME280;5880;52.342;9.662;2023-05-29T07:01:34;101756.75;;;30.34;34.50
11648;BME280;5880;52.342;9.662;2023-05-29T07:04:00;101755.25;;;30.66;33.68
11648;BME280;5880;52.342;9.662;2023-05-29T07:06:25;101763.19;;;30.94;33.35
11648;BME280;5880;52.342;9.662;2023-05-29T07:08:51;101758.31;;;31.03;32.75
11648;BME280;5880;52.342;9.662;2023-05-29T07:11:17;101765.28;;;31.05;32.64
11648;BME280;5880;52.342;9.662;2023-05-29T07:13:43;101771.28;;;31.16;32.41
11648;BME280;5880;52.342;9.662;2023-05-29T07:16:08;101765.03;;;31.31;31.87
11648;BME280;5880;52.342;9.662;2023-05-29T07:18:34;101766.75;;;31.45;31.88
11648;BME280;5880;52.342;9.662;2023-05-29T07:21:00;101769.06;;;31.64;31.44
11648;BME280;5880;52.342;9.662;2023-05-29T07:23:26;101765.91;;;31.78;31.16
11648;BME280;5880;52.342;9.662;2023-05-29T07:25:52;101766.22;;;31.97;30.83
11648;BME280;5880;52.342;9.662;2023-05-29T07:28:17;101760.69;;;32.13;30.49
11648;BME280;5880;52.342;9.662;2023-05-29T07:30:43;101769.75;;;32.31;30.21
11648;BME280;5880;52.342;9.662;2023-05-29T07:33:09;101765.63;;;32.41;29.60
11648;BME280;5880;52.342;9.662;2023-05-29T07:35:35;101767.03;;;32.47;29.67
11648;BME280;5880;52.342;9.662;2023-05-29T07:38:01;101762.91;;;32.44;29.47
11648;BME280;5880;52.342;9.662;2023-05-29T07:40:26;101748.06;;;32.35;29.44
11648;BME280;5880;52.342;9.662;2023-05-29T07:42:52;101761.84;;;32.12;28.96
11648;BME280;5880;52.342;9.662;2023-05-29T07:45:18;101766.72;;;31.78;28.69
11648;BME280;5880;52.342;9.662;2023-05-29T07:47:44;101768.06;;;31.26;28.31
11648;BME280;5880;52.342;9.662;2023-05-29T07:50:10;101781.88;;;30.77;28.37
11648;BME280;5880;52.342;9.662;2023-05-29T07:52:36;101781.16;;;30.29;28.13
11648;BME280;5880;52.342;9.662;2023-05-29T07:55:02;101783.63;;;29.84;28.85
11648;BME280;5880;52.342;9.662;2023-05-29T07:57:28;101782.03;;;29.48;28.93
11648;BME280;5880;52.342;9.662;2023-05-29T07:59:54;101783.69;;;29.14;28.73
11648;BME280;5880;52.342;9.662;2023-05-29T08:02:20;101777.69;;;28.81;29.27
11648;BME280;5880;52.342;9.662;2023-05-29T08:04:48;101790.03;;;28.54;29.53
11648;BME280;5880;52.342;9.662;2023-05-29T08:07:14;101774.38;;;28.22;29.73
11648;BME280;5880;52.342;9.662;2023-05-29T08:09:39;101782.72;;;28.04;29.81
11648;BME280;5880;52.342;9.662;2023-05-29T08:12:05;101775.84;;;27.88;29.78
11648;BME280;5880;52.342;9.662;2023-05-29T08:14:32;101772.59;;;27.72;29.98
11648;BME280;5880;52.342;9.662;2023-05-29T08:16:57;101772.50;;;27.54;30.06
11648;BME280;5880;52.342;9.662;2023-05-29T08:19:24;101772.88;;;27.39;30.23
11648;BME280;5880;52.342;9.662;2023-05-29T08:21:50;101768.47;;;27.24;30.20
11648;BME280;5880;52.342;9.662;2023-05-29T08:24:15;101781.69;;;27.10;30.06
11648;BME280;5880;52.342;9.662;2023-05-29T08:26:41;101769.47;;;26.92;30.32
11648;BME280;5880;52.342;9.662;2023-05-29T08:29:09;101769.09;;;26.85;30.60
11648;BME280;5880;52.342;9.662;2023-05-29T08:31:34;101776.19;;;26.68;30.20
11648;BME280;5880;52.342;9.662;2023-05-29T08:34:01;101773.47;;;26.49;30.49
11648;BME280;5880;52.342;9.662;2023-05-29T08:36:27;101779.09;;;26.36;30.40
11648;BME280;5880;52.342;9.662;2023-05-29T08:38:53;101779.94;;;26.22;30.53
11648;BME280;5880;52.342;9.662;2023-05-29T08:41:40;101769.53;;;26.09;30.89
11648;BME280;5880;52.342;9.662;2023-05-29T08:44:13;101776.56;;;25.93;31.17
11648;BME280;5880;52.342;9.662;2023-05-29T08:46:40;101783.16;;;25.83;31.43
11648;BME280;5880;52.342;9.662;2023-05-29T08:49:08;101780.53;;;25.73;31.45
11648;BME280;5880;52.342;9.662;2023-05-29T08:51:40;101777.31;;;25.65;31.38
11648;BME280;5880;52.342;9.662;2023-05-29T08:54:08;101778.63;;;25.54;31.26
11648;BME280;5880;52.342;9.662;2023-05-29T08:56:34;101757.56;;;25.43;31.27
11648;BME280;5880;52.342;9.662;2023-05-29T08:59:01;101780.25;;;25.41;31.39
11648;BME280;5880;52.342;9.662;2023-05-29T09:01:28;101773.06;;;25.35;31.57
11648;BME280;5880;52.342;9.662;2023-05-29T09:03:54;101780.63;;;25.35;31.63
11648;BME280;5880;52.342;9.662;2023-05-29T09:06:21;101781.25;;;25.32;31.76
11648;BME280;5880;52.342;9.662;2023-05-29T09:08:48;101788.38;;;25.24;31.54
11648;BME280;5880;52.342;9.662;2023-05-29T09:11:14;101788.03;;;25.25;31.66
11648;BME280;5880;52.342;9.662;2023-05-29T09:13:40;101792.28;;;25.23;31.55
11648;BME280;5880;52.342;9.662;2023-05-29T09:16:06;101786.97;;;25.21;31.71
11648;BME280;5880;52.342;9.662;2023-05-29T09:18:32;101774.16;;;25.20;31.34
11648;BME280;5880;52.342;9.662;2023-05-29T09:20:58;101781.38;;;25.21;31.45
11648;BME280;5880;52.342;9.662;2023-05-29T09:23:26;101781.38;;;25.21;31.77
11648;BME280;5880;52.342;9.662;2023-05-29T09:25:53;101778.59;;;25.21;32.02
11648;BME280;5880;52.342;9.662;2023-05-29T09:28:21;101792.91;;;25.20;32.01
11648;BME280;5880;52.342;9.662;2023-05-29T09:30:49;101788.72;;;25.17;32.07
11648;BME280;5880;52.342;9.662;2023-05-29T09:33:16;101789.00;;;25.16;31.98
11648;BME280;5880;52.342;9.662;2023-05-29T09:35:45;101782.88;;;25.14;32.08
11648;BME280;5880;52.342;9.662;2023-05-29T09:38:19;101789.28;;;25.14;32.32
11648;BME280;5880;52.342;9.662;2023-05-29T09:40:45;101785.16;;;25.12;32.08
11648;BME280;5880;52.342;9.662;2023-05-29T09:43:18;101775.41;;;25.09;32.21
11648;BME280;5880;52.342;9.662;2023-05-29T09:45:47;101775.78;;;25.02;32.45
11648;BME280;5880;52.342;9.662;2023-05-29T09:48:17;101780.00;;;25.00;32.10
11648;BME280;5880;52.342;9.662;2023-05-29T09:50:44;101773.34;;;24.96;32.15
11648;BME280;5880;52.342;9.662;2023-05-29T09:53:26;101778.66;;;24.97;32.68
11648;BME280;5880;52.342;9.662;2023-05-29T09:55:56;101772.31;;;24.92;32.54
11648;BME280;5880;52.342;9.662;2023-05-29T09:58:24;101772.31;;;24.92;32.49
11648;BME280;5880;52.342;9.662;2023-05-29T10:00:52;101771.78;;;24.90;32.49
11648;BME280;5880;52.342;9.662;2023-05-29T10:03:18;101773.75;;;24.89;32.47
11648;BME280;5880;52.342;9.662;2023-05-29T10:05:49;101764.50;;;24.89;32.50
11648;BME280;5880;52.342;9.662;2023-05-29T10:08:19;101770.97;;;24.89;32.11
11648;BME280;5880;52.342;9.662;2023-05-29T10:10:52;101770.97;;;24.89;32.63
11648;BME280;5880;52.342;9.662;2023-05-29T10:13:21;101758.47;;;24.81;32.11
11648;BME280;5880;52.342;9.662;2023-05-29T10:15:51;101770.72;;;24.85;32.56
11648;BME280;5880;52.342;9.662;2023-05-29T10:18:28;101776.31;;;24.85;32.60
11648;BME280;5880;52.342;9.662;2023-05-29T10:20:57;101771.63;;;24.81;32.49
11648;BME280;5880;52.342;9.662;2023-05-29T10:23:26;101759.69;;;24.75;32.77
11648;BME280;5880;52.342;9.662;2023-05-29T10:25:59;101764.66;;;24.78;32.49
11648;BME280;5880;52.342;9.662;2023-05-29T10:28:31;101756.66;;;24.72;32.80
11648;BME280;5880;52.342;9.662;2023-05-29T10:31:15;101755.00;;;24.71;32.61
11648;BME280;5880;52.342;9.662;2023-05-29T10:37:07;101752.41;;;24.55;32.67
11648;BME280;5880;52.342;9.662;2023-05-29T10:39:34;101737.97;;;24.48;32.77
11648;BME280;5880;52.342;9.662;2023-05-29T10:41:59;101749.97;;;24.49;33.00
11648;BME280;5880;52.342;9.662;2023-05-29T10:49:26;101743.66;;;24.38;33.16
11648;BME280;5880;52.342;9.662;2023-05-29T10:51:52;101750.38;;;24.37;32.83
11648;BME280;5880;52.342;9.662;2023-05-29T10:54:25;101746.75;;;24.36;33.02
11648;BME280;5880;52.342;9.662;2023-05-29T10:57:01;101752.03;;;24.38;33.15
11648;BME280;5880;52.342;9.662;2023-05-29T10:59:27;101735.03;;;24.34;33.31
11648;BME280;5880;52.342;9.662;2023-05-29T11:01:55;101742.53;;;24.39;33.25
11648;BME280;5880;52.342;9.662;2023-05-29T11:06:47;101741.09;;;24.41;33.12
11648;BME280;5880;52.342;9.662;2023-05-29T11:12:24;101732.69;;;24.41;32.93
11648;BME280;5880;52.342;9.662;2023-05-29T11:15:05;101731.13;;;24.35;33.10
11648;BME280;5880;52.342;9.662;2023-05-29T11:25:24;101732.84;;;24.31;33.68
11648;BME280;5880;52.342;9.662;2023-05-29T11:27:50;101730.28;;;24.35;33.52
11648;BME280;5880;52.342;9.662;2023-05-29T11:30:20;101729.97;;;24.36;33.33
11648;BME280;5880;52.342;9.662;2023-05-29T11:32:47;101730.28;;;24.35;33.47
11648;BME280;5880;52.342;9.662;2023-05-29T11:35:14;101728.56;;;24.39;33.56
11648;BME280;5880;52.342;9.662;2023-05-29T11:37:44;101715.19;;;24.36;33.69
11648;BME280;5880;52.342;9.662;2023-05-29T11:40:13;101727.44;;;24.40;33.50
11648;BME280;5880;52.342;9.662;2023-05-29T11:42:45;101730.44;;;24.43;33.42
11648;BME280;5880;52.342;9.662;2023-05-29T11:45:19;101729.63;;;24.43;33.45
11648;BME280;5880;52.342;9.662;2023-05-29T11:48:02;101725.69;;;24.44;33.68
11648;BME280;5880;52.342;9.662;2023-05-29T11:50:31;101716.84;;;24.37;33.45
11648;BME280;5880;52.342;9.662;2023-05-29T11:52:59;101730.75;;;24.42;33.35
11648;BME280;5880;52.342;9.662;2023-05-29T11:55:27;101726.28;;;24.41;33.47
11648;BME280;5880;52.342;9.662;2023-05-29T11:58:00;101719.88;;;24.40;33.23
11648;BME280;5880;52.342;9.662;2023-05-29T12:00:37;101717.69;;;24.37;33.59
11648;BME280;5880;52.342;9.662;2023-05-29T12:03:05;101727.19;;;24.36;33.88
11648;BME280;5880;52.342;9.662;2023-05-29T12:05:44;101714.59;;;24.39;33.40
11648;BME280;5880;52.342;9.662;2023-05-29T12:08:10;101706.56;;;24.32;33.48
11648;BME280;5880;52.342;9.662;2023-05-29T12:10:36;101716.00;;;24.36;33.19
11648;BME280;5880;52.342;9.662;2023-05-29T12:13:01;101708.53;;;24.32;33.57
11648;BME280;5880;52.342;9.662;2023-05-29T12:15:27;101704.91;;;24.31;33.63
11648;BME280;5880;52.342;9.662;2023-05-29T12:17:54;101716.53;;;24.38;33.63
11648;BME280;5880;52.342;9.662;2023-05-29T12:20:24;101707.91;;;24.35;33.77
11648;BME280;5880;52.342;9.662;2023-05-29T12:22:52;101713.16;;;24.41;33.58
11648;BME280;5880;52.342;9.662;2023-05-29T12:25:20;101718.97;;;24.45;33.35
11648;BME280;5880;52.342;9.662;2023-05-29T12:27:47;101707.56;;;24.41;33.57
11648;BME280;5880;52.342;9.662;2023-05-29T12:32:46;101715.41;;;24.39;33.48
11648;BME280;5880;52.342;9.662;2023-05-29T12:35:25;101718.97;;;24.45;33.53
11648;BME280;5880;52.342;9.662;2023-05-29T12:37:58;101713.69;;;24.43;33.45
11648;BME280;5880;52.342;9.662;2023-05-29T12:40:32;101718.16;;;24.44;33.52
11648;BME280;5880;52.342;9.662;2023-05-29T12:43:06;101715.03;;;24.46;33.33
11648;BME280;5880;52.342;9.662;2023-05-29T12:45:33;101717.84;;;24.46;33.51
11648;BME280;5880;52.342;9.662;2023-05-29T12:48:04;101710.59;;;24.45;32.97
11648;BME280;5880;52.342;9.662;2023-05-29T12:50:32;101713.63;;;24.49;33.23
11648;BME280;5880;52.342;9.662;2023-05-29T12:53:01;101710.56;;;24.50;33.00
11648;BME280;5880;52.342;9.662;2023-05-29T12:55:33;101708.06;;;24.49;33.29
11648;BME280;5880;52.342;9.662;2023-05-29T12:58:06;101712.44;;;24.55;33.11
11648;BME280;5880;52.342;9.662;2023-05-29T13:00:35;101709.94;;;24.53;32.98
11648;BME280;5880;52.342;9.662;2023-05-29T13:03:01;101713.06;;;24.52;32.92
11648;BME280;5880;52.342;9.662;2023-05-29T13:05:27;101699.13;;;24.47;32.79
11648;BME280;5880;52.342;9.662;2023-05-29T13:07:53;101699.09;;;24.52;33.22
11648;BME280;5880;52.342;9.662;2023-05-29T13:10:19;101707.16;;;24.53;32.83
11648;BME280;5880;52.342;9.662;2023-05-29T13:12:46;101700.97;;;24.56;32.97
11648;BME280;5880;52.342;9.662;2023-05-29T13:15:13;101698.47;;;24.55;32.60
11648;BME280;5880;52.342;9.662;2023-05-29T13:17:40;101709.56;;;24.60;32.43
11648;BME280;5880;52.342;9.662;2023-05-29T13:20:12;101693.41;;;24.57;32.55
11648;BME280;5880;52.342;9.662;2023-05-29T13:22:40;101705.13;;;24.59;32.50
11648;BME280;5880;52.342;9.662;2023-05-29T13:25:07;101705.34;;;24.62;32.53
11648;BME280;5880;52.342;9.662;2023-05-29T13:27:35;101713.72;;;24.62;31.95